Time;durP1;ratioP1;P1;durP2;ratioP2;P2;SDS_P1;SDS_P2;PMS_P1;PMS_P2;Temp;Humidity;BMP_temperature;BMP_pressure;BME280_temperature;BME280_humidity;BME280_pressure;Samples;Min_cycle;Max_cycle;Signal;HPM_P1;HPM_P2
2022/11/11 00:01:14;;;;;;;22.40;8.97;;;;;;;1.41;100.00;101067.45;1604245;89;21542;-71
2022/11/11 00:03:59;;;;;;;18.23;7.83;;;;;;;1.46;100.00;101096.03;1650847;87;21087;-71
2022/11/11 00:06:46;;;;;;;19.53;8.13;;;;;;;1.50;100.00;101104.72;1650206;86;21047;-72
2022/11/11 00:09:34;;;;;;;18.33;8.37;;;;;;;1.52;100.00;101112.16;1653473;85;21075;-71
2022/11/11 00:12:19;;;;;;;16.80;7.40;;;;;;;1.54;100.00;101111.62;1675202;86;21025;-72
2022/11/11 00:15:07;;;;;;;18.03;7.50;;;;;;;1.57;100.00;101107.91;1672170;84;21038;-72
2022/11/11 00:26:58;;;;;;;16.60;7.17;;;;;;;1.56;100.00;101095.51;1662925;84;21077;-71
2022/11/11 00:29:46;;;;;;;14.70;6.67;;;;;;;1.55;100.00;101089.81;1662783;86;21523;-70
2022/11/11 00:32:32;;;;;;;13.57;6.80;;;;;;;1.55;100.00;101087.14;1662982;86;21144;-71
2022/11/11 00:41:26;;;;;;;14.13;6.12;;;;;;;1.51;100.00;101067.31;1663944;86;21017;-70
2022/11/11 00:44:12;;;;;;;18.77;7.10;;;;;;;1.50;100.00;101063.41;1662389;86;21081;-71
2022/11/11 00:53:19;;;;;;;14.40;6.53;;;;;;;1.38;100.00;101051.66;1662683;85;21033;-70
2022/11/11 00:56:05;;;;;;;14.57;6.47;;;;;;;1.37;100.00;101057.06;1591193;90;21045;-70
2022/11/11 00:58:51;;;;;;;17.13;7.57;;;;;;;1.36;100.00;101048.67;1593320;89;21132;-71
2022/11/11 01:01:38;;;;;;;17.20;6.97;;;;;;;1.31;100.00;101051.14;1616837;89;21053;-71
2022/11/11 01:04:24;;;;;;;17.50;6.87;;;;;;;1.30;100.00;101047.22;1583950;91;21107;-70
2022/11/11 01:07:09;;;;;;;18.70;7.13;;;;;;;1.28;100.00;101049.97;1618942;89;21119;-72
2022/11/11 01:09:54;;;;;;;17.23;6.83;;;;;;;1.29;100.00;101049.03;1583958;91;21075;-71
2022/11/11 01:12:40;;;;;;;15.80;6.83;;;;;;;1.30;100.00;101049.41;1583984;91;21087;-71
2022/11/11 01:15:25;;;;;;;16.37;6.50;;;;;;;1.30;100.00;101052.55;1584013;88;21096;-70
2022/11/11 01:18:13;;;;;;;20.43;7.33;;;;;;;1.29;100.00;101058.36;1583821;91;21087;-71
2022/11/11 01:21:05;;;;;;;16.03;6.63;;;;;;;1.28;100.00;101059.30;1583789;91;21064;-70
2022/11/11 01:23:52;;;;;;;16.23;6.62;;;;;;;1.28;100.00;101060.63;1584060;91;21071;-71
2022/11/11 01:26:38;;;;;;;17.17;6.90;;;;;;;1.26;100.00;101055.86;1583925;91;21611;-71
2022/11/11 01:29:23;;;;;;;18.03;7.20;;;;;;;1.22;100.00;101053.00;1584027;91;21051;-71
2022/11/11 01:32:10;;;;;;;15.70;6.53;;;;;;;1.20;100.00;101052.67;1583933;89;21044;-71
2022/11/11 01:34:55;;;;;;;16.80;6.33;;;;;;;1.18;100.00;101055.42;1583884;91;21107;-70
2022/11/11 01:37:41;;;;;;;17.53;6.93;;;;;;;1.16;100.00;101054.66;1583863;89;21099;-71
2022/11/11 01:40:27;;;;;;;16.93;7.30;;;;;;;1.14;100.00;101052.55;1583988;91;21088;-70
2022/11/11 01:43:17;;;;;;;17.60;7.90;;;;;;;1.10;100.00;101054.53;1583783;91;21104;-70
2022/11/11 01:46:03;;;;;;;21.87;8.70;;;;;;;1.09;100.00;101059.94;1583903;91;21577;-71
2022/11/11 01:52:17;;;;;;;18.30;7.57;;;;;;;1.05;100.00;101052.59;1617190;86;21065;-71
2022/11/11 01:55:15;;;;;;;18.60;7.20;;;;;;;1.06;100.00;101048.11;1643190;86;21605;-71
2022/11/11 01:58:04;;;;;;;20.27;8.17;;;;;;;1.05;100.00;101051.73;1636819;86;21050;-70
2022/11/11 02:00:49;;;;;;;17.47;7.63;;;;;;;1.05;100.00;101064.58;1635415;86;21047;-70
2022/11/11 02:03:39;;;;;;;17.77;7.60;;;;;;;1.05;100.00;101063.25;1658138;86;21553;-71
2022/11/11 02:06:26;;;;;;;19.23;7.60;;;;;;;1.05;100.00;101062.39;1658186;86;21015;-70
2022/11/11 02:09:12;;;;;;;19.40;7.47;;;;;;;1.04;100.00;101061.52;1658098;86;21083;-72
2022/11/11 02:15:03;;;;;;;20.67;8.67;;;;;;;1.03;100.00;101060.30;1657307;86;21066;-71
2022/11/11 02:17:49;;;;;;;20.67;8.30;;;;;;;0.98;100.00;101057.87;1656081;87;21055;-71
2022/11/11 02:20:38;;;;;;;21.17;8.90;;;;;;;0.96;100.00;101062.42;1655923;86;21118;-72
2022/11/11 02:23:41;;;;;;;23.03;9.30;;;;;;;0.94;100.00;101063.84;1655957;87;21568;-70
2022/11/11 02:26:26;;;;;;;21.47;8.60;;;;;;;0.93;100.00;101063.44;1638561;87;21796;-71
2022/11/11 02:29:15;;;;;;;22.37;9.40;;;;;;;0.94;100.00;101066.50;1638377;88;21082;-72
2022/11/11 02:32:00;;;;;;;22.63;9.47;;;;;;;0.96;100.00;101062.42;1638757;88;21058;-72
2022/11/11 02:34:46;;;;;;;23.53;8.97;;;;;;;0.97;100.00;101065.94;1638507;88;20990;-71
2022/11/11 02:37:31;;;;;;;22.80;9.60;;;;;;;0.96;100.00;101067.75;1640528;87;21694;-71
2022/11/11 02:40:32;;;;;;;26.73;9.30;;;;;;;0.97;100.00;101077.92;1627841;88;21053;-72
2022/11/11 02:43:20;;;;;;;22.13;9.27;;;;;;;0.98;100.00;101080.99;1627968;88;21567;-71
2022/11/11 02:46:06;;;;;;;19.77;9.10;;;;;;;0.98;100.00;101084.50;1618413;88;21137;-71
2022/11/11 02:48:51;;;;;;;22.60;9.07;;;;;;;0.98;100.00;101084.50;1617230;88;21096;-70
2022/11/11 02:51:36;;;;;;;22.83;9.63;;;;;;;0.99;100.00;101092.86;1616984;88;21065;-71
2022/11/11 02:54:21;;;;;;;25.00;9.73;;;;;;;0.99;100.00;101092.02;1614945;88;21018;-71
2022/11/11 02:57:06;;;;;;;21.70;9.37;;;;;;;1.01;100.00;101088.79;1611876;89;21062;-71
2022/11/11 02:59:52;;;;;;;22.20;9.07;;;;;;;1.01;100.00;101095.00;1614202;89;21107;-70
2022/11/11 03:02:38;;;;;;;23.87;8.83;;;;;;;1.03;100.00;101095.77;1617563;88;21061;-71
2022/11/11 03:05:24;;;;;;;23.87;9.57;;;;;;;1.04;100.00;101092.14;1617987;88;21045;-71
2022/11/11 03:08:09;;;;;;;22.57;9.00;;;;;;;1.07;100.00;101099.98;1617965;88;21062;-70
2022/11/11 03:10:54;;;;;;;23.83;9.60;;;;;;;1.08;100.00;101099.05;1619286;88;21077;-70
2022/11/11 03:13:40;;;;;;;19.07;8.47;;;;;;;1.09;100.00;101099.41;1619773;88;21097;-71
2022/11/11 03:19:30;;;;;;;19.07;8.60;;;;;;;1.12;100.00;101096.59;1637448;84;21797;-70
2022/11/11 03:22:17;;;;;;;20.70;8.43;;;;;;;1.13;100.00;101110.31;1702505;84;20998;-70
2022/11/11 03:28:12;;;;;;;22.30;9.33;;;;;;;1.09;100.00;101114.55;1702580;84;21539;-70
2022/11/11 03:30:58;;;;;;;20.10;9.07;;;;;;;1.03;100.00;101102.43;1702371;84;21025;-70
2022/11/11 03:33:44;;;;;;;28.60;10.03;;;;;;;0.99;100.00;101102.19;1702144;84;21076;-71
2022/11/11 03:38:14;;;;;;;22.00;8.80;;;;;;;0.96;100.00;101102.38;1702435;84;21054;-71
2022/11/11 03:39:16;;;;;;;22.70;10.33;;;;;;;0.94;100.00;101098.94;1702596;84;21026;-71
2022/11/11 03:42:01;;;;;;;23.67;9.67;;;;;;;0.92;100.00;101102.13;1702424;84;21081;-70
2022/11/11 03:44:46;;;;;;;20.97;9.10;;;;;;;0.89;100.00;101104.50;1702791;84;21002;-71
2022/11/11 03:47:31;;;;;;;21.17;8.67;;;;;;;0.86;100.00;101108.66;1702533;84;21025;-70
2022/11/11 03:50:17;;;;;;;21.63;9.10;;;;;;;0.86;100.00;101109.98;1702842;84;21042;-71
2022/11/11 03:53:02;;;;;;;21.33;9.20;;;;;;;0.85;100.00;101114.95;1702567;84;21034;-70
2022/11/11 03:55:49;;;;;;;21.27;8.47;;;;;;;0.84;100.00;101111.87;1696292;85;21022;-70
2022/11/11 03:58:36;;;;;;;24.10;9.80;;;;;;;0.80;100.00;101110.33;1696005;84;21034;-70
2022/11/11 04:10:33;;;;;;;21.55;8.70;;;;;;;0.73;100.00;101109.80;1731616;83;20107;-71
2022/11/11 04:16:21;;;;;;;20.67;8.73;;;;;;;0.73;100.00;101117.78;1731454;81;21556;-70
2022/11/11 04:22:00;;;;;;;20.32;8.55;;;;;;;0.77;100.00;101128.27;1671024;86;21074;-71
2022/11/11 04:29:27;;;;;;;21.73;9.07;;;;;;;0.79;100.00;101135.22;1670120;86;21145;-70
2022/11/11 04:30:39;;;;;;;22.47;8.57;;;;;;;0.84;100.00;101139.84;1670452;86;21106;-69
2022/11/11 04:33:24;;;;;;;23.87;9.57;;;;;;;0.89;100.00;101139.61;1670244;86;21038;-71
2022/11/11 04:36:10;;;;;;;22.23;8.23;;;;;;;0.93;100.00;101141.15;1670459;86;21015;-71
2022/11/11 04:41:59;;;;;;;18.63;7.87;;;;;;;0.97;100.00;101142.70;1670519;86;21030;-70
2022/11/11 04:48:05;;;;;;;20.97;8.75;;;;;;;1.03;100.00;101149.52;1670555;86;21062;-70
2022/11/11 04:50:51;;;;;;;20.30;8.10;;;;;;;1.07;100.00;101141.75;1670231;86;21065;-71
2022/11/11 04:53:37;;;;;;;23.73;8.87;;;;;;;1.12;100.00;101148.54;1665882;86;21539;-69
2022/11/11 04:59:28;;;;;;;20.45;10.43;;;;;;;1.23;100.00;101158.61;1671805;86;21072;-71
2022/11/11 05:05:18;;;;;;;22.17;9.00;;;;;;;1.42;100.00;101182.45;1724480;82;21972;-71
2022/11/11 05:11:08;;;;;;;22.77;9.50;;;;;;;1.56;100.00;101183.03;1724793;83;21023;-70
2022/11/11 05:23:07;;;;;;;25.30;11.37;;;;;;;1.94;100.00;101191.16;1758887;82;21011;-71
2022/11/11 05:25:51;;;;;;;26.77;12.70;;;;;;;2.03;100.00;101201.30;1758859;82;21078;-70
2022/11/11 05:28:38;;;;;;;27.57;13.40;;;;;;;2.14;100.00;101212.68;1759097;81;21026;-70
2022/11/11 05:31:24;;;;;;;26.30;12.40;;;;;;;2.27;100.00;101214.56;1759036;82;21030;-72
2022/11/11 05:34:09;;;;;;;26.13;10.77;;;;;;;2.43;100.00;101229.70;1759146;81;21024;-71
2022/11/11 05:36:54;;;;;;;28.33;11.77;;;;;;;2.55;100.00;101232.09;1758958;82;21023;-71
2022/11/11 05:39:39;;;;;;;24.73;10.57;;;;;;;2.64;100.00;101235.10;1758875;82;21065;-72
2022/11/11 05:42:24;;;;;;;27.23;11.97;;;;;;;2.72;100.00;101231.97;1758911;82;21014;-71
2022/11/11 05:45:10;;;;;;;26.70;11.40;;;;;;;2.82;100.00;101238.48;1759100;81;21544;-71
2022/11/11 05:48:01;;;;;;;26.33;12.03;;;;;;;2.93;100.00;101246.34;1758802;82;21014;-70
2022/11/11 05:50:47;;;;;;;26.43;12.53;;;;;;;2.98;100.00;101257.13;1759104;82;21077;-72
2022/11/11 05:53:32;;;;;;;24.47;12.50;;;;;;;3.02;100.00;101255.98;1758995;81;21512;-71
2022/11/11 05:56:18;;;;;;;25.47;11.37;;;;;;;3.10;100.00;101258.66;1738328;82;21043;-72
2022/11/11 05:59:04;;;;;;;25.67;12.00;;;;;;;3.18;100.00;101265.75;1737546;82;21018;-71
2022/11/11 06:01:49;;;;;;;27.63;13.13;;;;;;;3.24;100.00;101261.38;1758581;82;21066;-70
2022/11/11 06:04:35;;;;;;;28.13;13.17;;;;;;;3.31;100.00;101265.85;1758319;82;21022;-72
2022/11/11 06:07:20;;;;;;;27.13;13.27;;;;;;;3.39;100.00;101275.13;1758629;82;21086;-72
2022/11/11 06:13:13;;;;;;;26.00;12.43;;;;;;;3.53;100.00;101281.45;1760370;81;20989;-71
2022/11/11 06:15:59;;;;;;;25.20;11.93;;;;;;;3.63;100.00;101277.70;1761941;81;21009;-70
2022/11/11 06:18:44;;;;;;;28.73;12.77;;;;;;;3.69;100.00;101294.72;1758909;81;21034;-70
2022/11/11 06:21:55;;;;;;;28.60;13.07;;;;;;;3.73;100.00;101300.25;1759898;81;21006;-70
2022/11/11 06:24:20;;;;;;;27.40;13.20;;;;;;;3.77;100.00;101299.98;1761426;81;20986;-70
2022/11/11 06:27:06;;;;;;;30.03;13.40;;;;;;;3.79;100.00;101296.72;1758995;80;21014;-74
2022/11/11 06:29:51;;;;;;;27.13;13.23;;;;;;;3.79;100.00;101305.23;1763357;80;20981;-72
2022/11/11 06:32:37;;;;;;;33.70;13.87;;;;;;;3.78;100.00;101291.47;1759510;81;20985;-70
2022/11/11 06:35:21;;;;;;;28.60;13.43;;;;;;;3.84;100.00;101294.23;1761085;81;20990;-72
2022/11/11 06:38:07;;;;;;;28.50;13.70;;;;;;;3.90;100.00;101296.53;1759785;81;21005;-70
2022/11/11 06:40:52;;;;;;;28.60;13.90;;;;;;;3.95;100.00;101303.80;1759982;81;21010;-71
2022/11/11 06:43:39;;;;;;;28.93;14.23;;;;;;;3.95;100.00;101303.30;1763902;81;21014;-72
2022/11/11 06:46:25;;;;;;;28.93;12.67;;;;;;;3.99;100.00;101304.81;1764772;80;21005;-71
2022/11/11 06:49:10;;;;;;;27.27;13.63;;;;;;;4.04;100.00;101304.99;1765892;80;21523;-71
2022/11/11 06:51:56;;;;;;;26.17;13.43;;;;;;;4.08;100.00;101307.87;1794330;80;21515;-73
2022/11/11 06:54:41;;;;;;;28.10;13.43;;;;;;;4.09;100.00;101309.58;1776472;80;21045;-73
2022/11/11 06:57:26;;;;;;;28.50;13.60;;;;;;;4.12;100.00;101318.76;1765316;81;21507;-73
2022/11/11 07:00:13;;;;;;;27.37;13.30;;;;;;;4.13;100.00;101314.65;1764880;81;21033;-73
2022/11/11 07:02:58;;;;;;;29.23;14.30;;;;;;;4.16;100.00;101318.48;1765588;81;21425;-72
2022/11/11 07:05:44;;;;;;;28.57;14.03;;;;;;;4.20;100.00;101319.14;1765165;81;21033;-72
2022/11/11 07:08:29;;;;;;;23.70;11.70;;;;;;;4.24;100.00;101309.94;1765833;81;21030;-72
2022/11/11 07:11:14;;;;;;;30.20;13.23;;;;;;;4.28;100.00;101306.09;1764081;81;21030;-73
2022/11/11 07:14:00;;;;;;;34.80;15.40;;;;;;;4.31;100.00;101305.91;1764101;81;21124;-70
2022/11/11 07:16:48;;;;;;;28.07;13.67;;;;;;;4.40;100.00;101312.97;1764296;81;21069;-70
2022/11/11 07:19:34;;;;;;;30.93;14.50;;;;;;;4.46;100.00;101312.09;1766281;81;21014;-73
2022/11/11 07:22:20;;;;;;;28.10;13.43;;;;;;;4.52;100.00;101307.66;1765694;81;21050;-71
2022/11/11 07:25:06;;;;;;;29.80;14.50;;;;;;;4.59;100.00;101304.59;1767202;81;21021;-72
2022/11/11 07:27:51;;;;;;;30.13;14.40;;;;;;;4.65;100.00;101302.83;1761028;81;21100;-70
2022/11/11 07:30:37;;;;;;;31.60;15.67;;;;;;;4.69;100.00;101313.72;1758977;82;21074;-72
2022/11/11 07:33:22;;;;;;;29.43;14.33;;;;;;;4.70;100.00;101310.09;1759032;82;21562;-72
2022/11/11 07:36:08;;;;;;;35.03;15.87;;;;;;;4.74;100.00;101318.29;1759048;82;21046;-72
2022/11/11 07:38:53;;;;;;;28.43;14.00;;;;;;;4.80;100.00;101299.59;1759111;82;21093;-71
2022/11/11 07:41:39;;;;;;;34.87;15.83;;;;;;;4.83;100.00;101298.06;1757923;82;21015;-70
2022/11/11 07:44:24;;;;;;;42.87;17.37;;;;;;;4.83;100.00;101292.21;1747582;82;21107;-71
2022/11/11 07:47:09;;;;;;;30.30;14.60;;;;;;;4.89;100.00;101299.00;1747948;82;21006;-71
2022/11/11 07:49:56;;;;;;;36.20;16.80;;;;;;;4.90;100.00;101300.70;1748075;82;21095;-72
2022/11/11 07:52:48;;;;;;;36.17;15.80;;;;;;;4.89;100.00;101297.66;1748400;82;20990;-71
2022/11/11 07:55:35;;;;;;;;;;;;;;;4.90;100.00;101301.55;1762593;82;20979;-71
2022/11/11 07:58:20;;;;;;;32.43;15.67;;;;;;;4.89;100.00;101301.69;1759732;82;20420;-70
2022/11/11 08:01:05;;;;;;;32.43;15.07;;;;;;;4.87;100.00;101297.77;1759123;82;21563;-72
2022/11/11 08:03:51;;;;;;;31.70;13.77;;;;;;;4.89;100.00;101294.98;1759073;82;21086;-72
2022/11/11 08:06:37;;;;;;;33.40;14.93;;;;;;;4.91;100.00;101295.73;1758972;81;21065;-72
2022/11/11 08:09:22;;;;;;;27.80;14.10;;;;;;;4.97;100.00;101291.28;1759268;81;21026;-74
2022/11/11 08:15:14;;;;;;;32.00;15.27;;;;;;;5.10;100.00;101280.11;1759491;81;21003;-72
2022/11/11 08:18:03;;;;;;;32.27;15.07;;;;;;;5.14;100.00;101271.37;1758929;82;21074;-72
2022/11/11 08:20:50;;;;;;;32.23;16.47;;;;;;;5.18;100.00;101271.53;1759488;82;21044;-82
2022/11/11 08:23:37;;;;;;;35.17;17.47;;;;;;;5.21;100.00;101257.92;1763532;80;21050;-83
2022/11/11 08:26:26;;;;;;;31.27;16.23;;;;;;;5.25;100.00;101254.54;1791557;80;21030;-84
2022/11/11 08:29:10;;;;;;;34.00;15.80;;;;;;;5.29;100.00;101250.20;1791911;80;21045;-76
2022/11/11 08:31:56;;;;;;;34.87;17.67;;;;;;;5.37;100.00;101253.68;1758793;81;21165;-81
2022/11/11 08:34:44;;;;;;;32.60;16.57;;;;;;;5.41;100.00;101255.66;1740597;82;20990;-80
2022/11/11 08:37:33;;;;;;;30.23;16.77;;;;;;;5.41;100.00;101245.78;1766722;81;21038;-86
2022/11/11 08:40:19;;;;;;;31.53;16.97;;;;;;;5.45;100.00;101240.59;1760845;81;21030;-86
2022/11/11 08:43:05;;;;;;;38.93;20.03;;;;;;;5.50;100.00;101233.05;1761112;82;21006;-81
2022/11/11 08:45:52;;;;;;;37.00;20.03;;;;;;;5.57;100.00;101227.27;1737518;81;21030;-82
2022/11/11 08:48:39;;;;;;;29.27;15.07;;;;;;;5.60;100.00;101221.69;1760751;82;21575;-80
2022/11/11 08:51:24;;;;;;;32.50;15.57;;;;;;;5.61;100.00;101211.31;1760352;81;20995;-79
2022/11/11 08:54:09;;;;;;;32.10;16.57;;;;;;;5.62;100.00;101203.16;1760035;81;20994;-80
2022/11/11 08:56:56;;;;;;;32.53;16.43;;;;;;;5.61;100.00;101189.38;1710104;82;21070;-79
2022/11/11 08:59:42;;;;;;;33.40;16.90;;;;;;;5.70;100.00;101183.34;1739391;82;21051;-78
2022/11/11 09:02:29;;;;;;;33.23;16.53;;;;;;;5.70;100.00;101170.39;1739229;82;21023;-79
2022/11/11 09:05:14;;;;;;;31.00;16.23;;;;;;;5.77;100.00;101169.46;1736980;82;20992;-84
2022/11/11 09:08:05;;;;;;;29.63;14.37;;;;;;;5.83;100.00;101163.66;1711628;83;21084;-83
2022/11/11 09:10:52;;;;;;;28.67;13.47;;;;;;;5.92;100.00;101160.78;1738704;82;21004;-81
2022/11/11 09:13:39;;;;;;;29.80;14.53;;;;;;;6.01;100.00;101157.44;1764824;80;21054;-81
2022/11/11 09:16:25;;;;;;;28.43;13.73;;;;;;;6.08;100.00;101158.20;1770211;80;21046;-80
2022/11/11 09:19:10;;;;;;;28.43;12.73;;;;;;;6.19;100.00;101144.46;1758216;82;21066;-76
2022/11/11 09:21:57;;;;;;;31.77;15.57;;;;;;;6.30;100.00;101133.75;1758413;82;21046;-73
2022/11/11 09:24:43;;;;;;;31.97;14.90;;;;;;;6.43;100.00;101135.88;1758990;82;21021;-75
2022/11/11 09:27:29;;;;;;;29.33;14.70;;;;;;;6.48;100.00;101129.29;1759374;81;21066;-76
2022/11/11 09:30:15;;;;;;;29.50;14.37;;;;;;;6.49;100.00;101109.02;1761725;80;21025;-75
2022/11/11 09:33:02;;;;;;;26.13;12.47;;;;;;;6.52;100.00;101098.55;1759386;81;21460;-74
2022/11/11 09:35:47;;;;;;;28.77;12.90;;;;;;;6.57;100.00;101085.58;1759271;82;21022;-75
2022/11/11 09:38:35;;;;;;;26.87;12.80;;;;;;;6.62;100.00;101065.92;1759189;80;21062;-76
2022/11/11 09:41:47;;;;;;;32.23;13.07;;;;;;;6.64;100.00;101039.31;1759329;80;21006;-77
2022/11/11 09:45:11;;;;;;;23.67;11.03;;;;;;;6.64;100.00;101028.56;1751225;81;21013;-78
2022/11/11 09:48:39;;;;;;;26.43;11.73;;;;;;;6.70;100.00;101003.02;1754631;82;21041;-74
2022/11/11 09:51:32;;;;;;;24.33;11.30;;;;;;;6.80;100.00;100988.38;1752545;81;21010;-78
2022/11/11 09:54:20;;;;;;;24.00;11.90;;;;;;;6.78;100.00;100956.70;1702169;84;21066;-77
2022/11/11 09:57:15;;;;;;;26.27;11.77;;;;;;;6.75;100.00;100943.53;1703448;83;21055;-77
2022/11/11 10:00:00;;;;;;;36.93;17.17;;;;;;;6.77;100.00;100918.72;1639905;87;21053;-74
2022/11/11 10:03:04;;;;;;;27.93;13.33;;;;;;;6.75;100.00;100901.37;1648740;87;21018;-75
2022/11/11 10:06:14;;;;;;;;;;;;;;;6.77;100.00;100879.74;1635673;87;21045;-78
2022/11/11 10:09:03;;;;;;;25.60;11.93;;;;;;;6.78;100.00;100862.62;1596509;90;20130;-77
2022/11/11 10:12:09;;;;;;;25.63;11.33;;;;;;;6.76;100.00;100852.48;1620543;87;21083;-82
2022/11/11 10:14:56;;;;;;;23.40;10.27;;;;;;;6.78;100.00;100847.83;1601638;90;21536;-73
2022/11/11 10:18:05;;;;;;;26.80;11.93;;;;;;;6.81;100.00;100831.45;1600848;89;21062;-78
2022/11/11 10:20:55;;;;;;;24.07;11.57;;;;;;;6.83;100.00;100825.45;1605059;89;21531;-73
2022/11/11 10:23:46;;;;;;;26.48;12.30;;;;;;;6.89;100.00;100822.28;1616195;88;21139;-81
2022/11/11 10:26:40;;;;;;;24.53;12.10;;;;;;;6.89;100.00;100799.42;1592486;88;21199;-78
2022/11/11 10:29:26;;;;;;;23.83;11.38;;;;;;;6.84;100.00;100783.67;1600416;88;21108;-83
2022/11/11 10:32:25;;;;;;;25.77;12.17;;;;;;;6.84;100.00;100770.23;1615191;88;21098;-78
2022/11/11 10:35:21;;;;;;;25.17;12.40;;;;;;;6.87;100.00;100765.57;1625882;87;21038;-82
2022/11/11 10:38:41;;;;;;;24.70;11.97;;;;;;;6.90;100.00;100761.28;1577327;88;21051;-76
2022/11/11 10:41:33;;;;;;;24.03;11.77;;;;;;;6.98;100.00;100754.78;1576831;90;21102;-77
2022/11/11 10:44:22;;;;;;;25.50;12.30;;;;;;;7.04;100.00;100744.33;1604351;89;21519;-75
2022/11/11 10:47:31;;;;;;;25.87;12.03;;;;;;;7.08;100.00;100737.35;1632214;86;21099;-78
2022/11/11 10:50:25;;;;;;;34.77;13.67;;;;;;;7.11;100.00;100719.11;1578875;89;21090;-77
2022/11/11 10:53:57;;;;;;;25.30;11.90;;;;;;;7.10;100.00;100716.55;1562405;92;21440;-77
2022/11/11 10:57:04;;;;;;;27.70;14.53;;;;;;;7.14;100.00;100711.30;1556205;92;21136;-79
2022/11/11 10:59:58;;;;;;;24.23;12.00;;;;;;;7.13;100.00;100706.38;1554615;91;21057;-80
2022/11/11 11:02:58;;;;;;;22.97;10.53;;;;;;;7.12;100.00;100711.89;1590975;89;21539;-74
2022/11/11 11:05:49;;;;;;;24.27;10.60;;;;;;;7.09;100.00;100710.83;1484057;96;21161;-79
2022/11/11 11:08:39;;;;;;;24.97;11.33;;;;;;;7.09;100.00;100704.11;1440230;97;21194;-77
2022/11/11 11:11:39;;;;;;;23.37;11.27;;;;;;;7.09;100.00;100704.95;1419283;101;21715;-79
2022/11/11 11:14:42;;;;;;;25.43;11.83;;;;;;;7.10;100.00;100705.80;1415902;101;21143;-81
2022/11/11 11:17:41;;;;;;;23.80;10.33;;;;;;;7.14;100.00;100712.63;1438955;100;21112;-81
2022/11/11 11:20:28;;;;;;;24.90;10.30;;;;;;;7.19;100.00;100717.97;1426235;101;21103;-78
2022/11/11 11:23:17;;;;;;;22.17;10.83;;;;;;;7.24;100.00;100720.24;1405577;99;21136;-82
2022/11/11 11:26:04;;;;;;;24.07;10.30;;;;;;;7.25;100.00;100720.62;1385328;100;21164;-79
2022/11/11 11:28:56;;;;;;;24.53;12.27;;;;;;;7.26;100.00;100725.02;1413998;102;21176;-81
2022/11/11 11:31:42;;;;;;;23.47;10.67;;;;;;;7.28;100.00;100716.33;1423298;99;21104;-80
2022/11/11 11:34:46;;;;;;;25.67;11.13;;;;;;;7.29;100.00;100709.94;1405839;102;21167;-80
2022/11/11 11:37:33;;;;;;;24.67;11.37;;;;;;;7.30;100.00;100709.47;1427983;100;21139;-82
2022/11/11 11:40:20;;;;;;;23.63;11.47;;;;;;;7.35;100.00;100709.92;1439382;99;21164;-78
2022/11/11 11:43:27;;;;;;;27.87;11.90;;;;;;;7.36;100.00;100707.07;1492193;93;21109;-80
2022/11/11 11:46:28;;;;;;;26.13;11.43;;;;;;;7.38;100.00;100705.13;1493121;95;21093;-80
2022/11/11 11:50:05;;;;;;;23.83;10.67;;;;;;;7.44;100.00;100716.31;1488093;96;21124;-80
2022/11/11 11:53:08;;;;;;;21.87;9.10;;;;;;;7.42;100.00;100719.16;1492878;96;21741;-81
2022/11/11 11:56:08;;;;;;;24.67;9.97;;;;;;;7.41;100.00;100726.36;1514162;95;21073;-75
2022/11/11 11:59:11;;;;;;;26.10;11.40;;;;;;;7.40;100.00;100732.75;1516929;93;21094;-76
2022/11/11 12:02:37;;;;;;;24.67;11.78;;;;;;;7.33;100.00;100742.80;1532417;94;21111;-79
2022/11/11 12:05:27;;;;;;;26.80;11.43;;;;;;;7.31;100.00;100740.28;1532236;94;21158;-79
2022/11/11 12:08:52;;;;;;;28.03;12.30;;;;;;;7.32;100.00;100753.23;1555786;91;21109;-78
2022/11/11 12:11:52;;;;;;;28.53;11.40;;;;;;;7.33;100.00;100751.75;1652210;86;21034;-79
2022/11/11 12:15:17;;;;;;;23.73;10.63;;;;;;;7.34;100.00;100746.72;1657451;87;21564;-76
2022/11/11 12:18:20;;;;;;;25.90;11.40;;;;;;;7.33;100.00;100748.19;1694370;83;21050;-78
2022/11/11 12:21:15;;;;;;;23.55;10.45;;;;;;;7.30;100.00;100740.41;1698015;85;21082;-77
2022/11/11 12:24:18;;;;;;;28.47;12.73;;;;;;;7.28;100.00;100741.87;1698734;85;21068;-79
2022/11/11 12:27:26;;;;;;;21.73;10.20;;;;;;;7.33;100.00;100748.19;1698538;84;20999;-77
2022/11/11 12:30:16;;;;;;;24.30;10.63;;;;;;;7.35;100.00;100749.78;1702972;83;21006;-76
2022/11/11 12:33:20;;;;;;;23.83;10.17;;;;;;;7.36;100.00;100753.31;1690207;85;21104;-78
2022/11/11 12:36:53;;;;;;;22.53;10.07;;;;;;;7.38;100.00;100762.09;1690309;84;21035;-78
2022/11/11 12:40:08;;;;;;;28.83;12.40;;;;;;;7.38;100.00;100758.06;1669474;85;21043;-79
2022/11/11 12:43:20;;;;;;;27.83;11.63;;;;;;;7.36;100.00;100757.34;1657728;86;21039;-77
2022/11/11 12:46:23;;;;;;;24.67;10.73;;;;;;;7.26;100.00;100765.38;1669708;85;21055;-77
2022/11/11 12:49:48;;;;;;;24.40;11.00;;;;;;;7.19;100.00;100769.08;1670609;86;21548;-76
2022/11/11 12:53:14;;;;;;;24.57;10.20;;;;;;;7.19;100.00;100769.08;1670429;86;21126;-77
2022/11/11 12:56:33;;;;;;;23.32;10.18;;;;;;;7.16;100.00;100766.64;1672798;83;20998;-78
2022/11/11 12:59:34;;;;;;;25.10;10.97;;;;;;;7.15;100.00;100778.41;1672644;86;21069;-78
2022/11/11 13:03:02;;;;;;;30.43;11.10;;;;;;;7.13;100.00;100784.38;1645666;87;21085;-77
2022/11/11 13:06:05;;;;;;;31.57;12.67;;;;;;;7.15;100.00;100790.50;1646101;87;21078;-82
2022/11/11 13:09:17;;;;;;;28.75;11.80;;;;;;;7.14;100.00;100783.91;1645964;87;21074;-81
2022/11/11 13:12:37;;;;;;;29.20;12.53;;;;;;;7.14;100.00;100791.98;1645696;85;21069;-77
2022/11/11 13:15:26;;;;;;;31.93;13.33;;;;;;;7.14;100.00;100791.48;1650057;86;21038;-81
2022/11/11 13:18:17;;;;;;;33.80;13.10;;;;;;;7.12;100.00;100789.88;1649084;86;21134;-79
2022/11/11 13:21:08;;;;;;;28.50;12.40;;;;;;;7.10;100.00;100792.73;1653698;82;21076;-82
2022/11/11 13:23:54;;;;;;;32.03;12.27;;;;;;;7.09;100.00;100800.92;1573612;91;21089;-79
2022/11/11 13:26:50;;;;;;;29.20;12.37;;;;;;;7.07;100.00;100806.43;1564697;91;21045;-77
2022/11/11 13:30:03;;;;;;;39.83;16.77;;;;;;;7.07;100.00;100801.05;1514104;94;21189;-77
2022/11/11 13:33:17;;;;;;;42.77;18.00;;;;;;;7.10;100.00;100797.23;1478352;95;21162;-77
2022/11/11 13:36:03;;;;;;;39.13;17.95;;;;;;;7.12;100.00;100787.19;1495179;95;21120;-79
2022/11/11 13:38:59;;;;;;;37.10;14.90;;;;;;;7.12;100.00;100786.72;1490539;95;21103;-81
2022/11/11 13:41:47;;;;;;;31.23;13.87;;;;;;;7.12;100.00;100789.88;1481637;95;21129;-80
2022/11/11 13:44:38;;;;;;;31.70;13.27;;;;;;;7.08;100.00;100794.67;1493497;95;21060;-79
2022/11/11 13:47:28;;;;;;;37.93;15.80;;;;;;;7.06;100.00;100799.33;1472418;93;21121;-80
2022/11/11 13:50:30;;;;;;;36.03;15.93;;;;;;;7.05;100.00;100800.33;1472481;96;21245;-79
2022/11/11 13:53:32;;;;;;;29.10;13.57;;;;;;;7.03;100.00;100806.34;1454139;99;21117;-81
2022/11/11 13:56:42;;;;;;;32.03;14.30;;;;;;;7.01;100.00;100797.05;1461284;96;21157;-79
2022/11/11 13:59:33;;;;;;;31.93;12.60;;;;;;;6.97;100.00;100794.73;1480254;97;21147;-81
2022/11/11 14:02:25;;;;;;;28.70;12.93;;;;;;;6.93;100.00;100802.70;1475869;97;21149;-79
2022/11/11 14:05:18;;;;;;;31.13;13.53;;;;;;;6.90;100.00;100797.08;1464453;97;21363;-80
2022/11/11 14:08:06;;;;;;;27.20;11.73;;;;;;;6.88;100.00;100800.89;1478191;97;21082;-79
2022/11/11 14:10:56;;;;;;;31.87;13.10;;;;;;;6.88;100.00;100807.61;1475928;97;21094;-79
2022/11/11 14:13:41;;;;;;;36.60;15.10;;;;;;;6.86;100.00;100807.73;1456138;99;21122;-80
2022/11/11 14:16:41;;;;;;;34.00;15.30;;;;;;;6.86;100.00;100810.42;1455471;99;21191;-80
2022/11/11 14:19:28;;;;;;;41.50;14.63;;;;;;;6.85;100.00;100806.02;1474003;96;21143;-80
2022/11/11 14:22:32;;;;;;;26.87;12.87;;;;;;;6.83;100.00;100802.61;1505045;95;21082;-80
2022/11/11 14:25:25;;;;;;;28.23;11.93;;;;;;;6.79;100.00;100806.05;1486733;96;21099;-79